sensor_id;sensor_type;location;lat;lon;timestamp;P1;durP1;ratioP1;P2;durP2;ratioP2
15818;SDS011;8010;53.986;12.106;2024-03-17T00:01:49;6.67;;;1.37;;
15818;SDS011;8010;53.986;12.106;2024-03-17T00:04:15;11.67;;;2.30;;
15818;SDS011;8010;53.986;12.106;2024-03-17T00:06:40;12.60;;;1.90;;
15818;SDS011;8010;53.986;12.106;2024-03-17T00:09:06;10.17;;;1.60;;
15818;SDS011;8010;53.986;12.106;2024-03-17T00:11:34;8.90;;;1.93;;
15818;SDS011;8010;53.986;12.106;2024-03-17T00:14:00;8.30;;;1.53;;
15818;SDS011;8010;53.986;12.106;2024-03-17T00:16:26;8.90;;;1.97;;
15818;SDS011;8010;53.986;12.106;2024-03-17T00:18:52;13.43;;;1.57;;
15818;SDS011;8010;53.986;12.106;2024-03-17T00:21:18;10.50;;;1.57;;
15818;SDS011;8010;53.986;12.106;2024-03-17T00:23:44;10.73;;;1.80;;
15818;SDS011;8010;53.986;12.106;2024-03-17T00:26:12;7.80;;;1.80;;
15818;SDS011;8010;53.986;12.106;2024-03-17T00:28:37;8.83;;;1.60;;
15818;SDS011;8010;53.986;12.106;2024-03-17T00:31:04;9.13;;;1.23;;
15818;SDS011;8010;53.986;12.106;2024-03-17T00:33:30;5.03;;;1.10;;
15818;SDS011;8010;53.986;12.106;2024-03-17T00:35:55;5.27;;;1.50;;
15818;SDS011;8010;53.986;12.106;2024-03-17T00:38:21;11.23;;;2.13;;
15818;SDS011;8010;53.986;12.106;2024-03-17T00:40:47;8.50;;;1.67;;
15818;SDS011;8010;53.986;12.106;2024-03-17T00:43:14;7.93;;;1.23;;
15818;SDS011;8010;53.986;12.106;2024-03-17T00:45:39;5.83;;;1.13;;
15818;SDS011;8010;53.986;12.106;2024-03-17T00:48:05;7.87;;;1.40;;
15818;SDS011;8010;53.986;12.106;2024-03-17T00:50:31;7.53;;;1.47;;
15818;SDS011;8010;53.986;12.106;2024-03-17T00:52:57;6.07;;;1.53;;
15818;SDS011;8010;53.986;12.106;2024-03-17T00:55:22;4.93;;;1.20;;
15818;SDS011;8010;53.986;12.106;2024-03-17T00:57:48;3.23;;;1.07;;
15818;SDS011;8010;53.986;12.106;2024-03-17T01:00:13;10.00;;;1.83;;
15818;SDS011;8010;53.986;12.106;2024-03-17T01:02:40;7.57;;;1.43;;
15818;SDS011;8010;53.986;12.106;2024-03-17T01:05:06;4.77;;;1.20;;
15818;SDS011;8010;53.986;12.106;2024-03-17T01:07:32;7.63;;;1.53;;
15818;SDS011;8010;53.986;12.106;2024-03-17T01:09:58;9.57;;;1.93;;
15818;SDS011;8010;53.986;12.106;2024-03-17T01:12:23;12.50;;;1.47;;
15818;SDS011;8010;53.986;12.106;2024-03-17T01:14:50;8.23;;;1.87;;
15818;SDS011;8010;53.986;12.106;2024-03-17T01:17:15;3.73;;;1.23;;
15818;SDS011;8010;53.986;12.106;2024-03-17T01:19:42;7.30;;;1.63;;
15818;SDS011;8010;53.986;12.106;2024-03-17T01:22:08;11.30;;;1.83;;
15818;SDS011;8010;53.986;12.106;2024-03-17T01:24:33;11.67;;;2.00;;
15818;SDS011;8010;53.986;12.106;2024-03-17T01:26:59;10.40;;;1.60;;
15818;SDS011;8010;53.986;12.106;2024-03-17T01:29:25;12.30;;;2.03;;
15818;SDS011;8010;53.986;12.106;2024-03-17T01:31:51;14.97;;;2.00;;
15818;SDS011;8010;53.986;12.106;2024-03-17T01:34:18;11.30;;;1.60;;
15818;SDS011;8010;53.986;12.106;2024-03-17T01:36:44;9.87;;;1.50;;
15818;SDS011;8010;53.986;12.106;2024-03-17T01:39:09;10.43;;;1.17;;
15818;SDS011;8010;53.986;12.106;2024-03-17T01:41:36;11.27;;;1.70;;
15818;SDS011;8010;53.986;12.106;2024-03-17T01:44:02;6.70;;;1.53;;
15818;SDS011;8010;53.986;12.106;2024-03-17T01:46:27;13.87;;;1.93;;
15818;SDS011;8010;53.986;12.106;2024-03-17T01:48:53;8.80;;;1.50;;
15818;SDS011;8010;53.986;12.106;2024-03-17T01:51:19;7.37;;;1.57;;
15818;SDS011;8010;53.986;12.106;2024-03-17T01:53:46;9.10;;;1.97;;
15818;SDS011;8010;53.986;12.106;2024-03-17T01:56:11;7.30;;;1.60;;
15818;SDS011;8010;53.986;12.106;2024-03-17T01:58:38;16.73;;;2.10;;
15818;SDS011;8010;53.986;12.106;2024-03-17T02:01:07;11.73;;;1.57;;
15818;SDS011;8010;53.986;12.106;2024-03-17T02:03:32;12.00;;;1.83;;
15818;SDS011;8010;53.986;12.106;2024-03-17T02:05:58;11.33;;;2.03;;
15818;SDS011;8010;53.986;12.106;2024-03-17T02:08:24;19.07;;;2.07;;
15818;SDS011;8010;53.986;12.106;2024-03-17T02:10:53;8.57;;;1.63;;
15818;SDS011;8010;53.986;12.106;2024-03-17T02:13:20;9.43;;;1.53;;
15818;SDS011;8010;53.986;12.106;2024-03-17T02:15:46;10.30;;;1.60;;
15818;SDS011;8010;53.986;12.106;2024-03-17T02:18:12;14.40;;;2.87;;
15818;SDS011;8010;53.986;12.106;2024-03-17T02:20:38;4.93;;;1.50;;
15818;SDS011;8010;53.986;12.106;2024-03-17T02:23:24;4.57;;;0.97;;
15818;SDS011;8010;53.986;12.106;2024-03-17T02:25:51;12.60;;;2.43;;
15818;SDS011;8010;53.986;12.106;2024-03-17T02:28:17;7.20;;;1.43;;
15818;SDS011;8010;53.986;12.106;2024-03-17T02:30:43;10.07;;;2.30;;
15818;SDS011;8010;53.986;12.106;2024-03-17T02:33:09;5.13;;;1.27;;
15818;SDS011;8010;53.986;12.106;2024-03-17T02:35:35;4.93;;;1.23;;
15818;SDS011;8010;53.986;12.106;2024-03-17T02:38:01;6.20;;;0.90;;
15818;SDS011;8010;53.986;12.106;2024-03-17T02:40:27;5.80;;;1.07;;
15818;SDS011;8010;53.986;12.106;2024-03-17T02:42:53;5.00;;;1.47;;
15818;SDS011;8010;53.986;12.106;2024-03-17T02:45:20;6.30;;;1.10;;
15818;SDS011;8010;53.986;12.106;2024-03-17T02:47:46;7.03;;;1.37;;
15818;SDS011;8010;53.986;12.106;2024-03-17T02:50:11;4.67;;;0.90;;
15818;SDS011;8010;53.986;12.106;2024-03-17T02:52:37;7.73;;;1.03;;
15818;SDS011;8010;53.986;12.106;2024-03-17T02:55:02;3.40;;;1.07;;
15818;SDS011;8010;53.986;12.106;2024-03-17T02:57:28;5.53;;;1.10;;
15818;SDS011;8010;53.986;12.106;2024-03-17T02:59:54;3.00;;;1.10;;
15818;SDS011;8010;53.986;12.106;2024-03-17T03:02:20;1.97;;;0.90;;
15818;SDS011;8010;53.986;12.106;2024-03-17T03:04:46;5.07;;;0.67;;
15818;SDS011;8010;53.986;12.106;2024-03-17T03:07:12;3.93;;;0.80;;
15818;SDS011;8010;53.986;12.106;2024-03-17T03:09:37;1.20;;;0.47;;
15818;SDS011;8010;53.986;12.106;2024-03-17T03:12:03;3.90;;;0.70;;
15818;SDS011;8010;53.986;12.106;2024-03-17T03:14:29;4.77;;;0.70;;
15818;SDS011;8010;53.986;12.106;2024-03-17T03:16:55;3.90;;;1.10;;
15818;SDS011;8010;53.986;12.106;2024-03-17T03:19:20;3.33;;;0.80;;
15818;SDS011;8010;53.986;12.106;2024-03-17T03:21:46;4.93;;;0.90;;
15818;SDS011;8010;53.986;12.106;2024-03-17T03:24:13;3.23;;;0.57;;
15818;SDS011;8010;53.986;12.106;2024-03-17T03:26:39;1.93;;;0.80;;
15818;SDS011;8010;53.986;12.106;2024-03-17T03:29:05;1.27;;;0.70;;
15818;SDS011;8010;53.986;12.106;2024-03-17T03:31:31;4.47;;;0.93;;
15818;SDS011;8010;53.986;12.106;2024-03-17T03:33:57;5.13;;;0.87;;
15818;SDS011;8010;53.986;12.106;2024-03-17T03:36:26;2.17;;;0.67;;
15818;SDS011;8010;53.986;12.106;2024-03-17T03:38:52;3.50;;;0.77;;
15818;SDS011;8010;53.986;12.106;2024-03-17T03:41:18;2.03;;;0.70;;
15818;SDS011;8010;53.986;12.106;2024-03-17T03:43:44;5.13;;;0.70;;
15818;SDS011;8010;53.986;12.106;2024-03-17T03:46:11;2.90;;;0.60;;
15818;SDS011;8010;53.986;12.106;2024-03-17T03:48:37;3.93;;;1.20;;
15818;SDS011;8010;53.986;12.106;2024-03-17T03:51:03;2.53;;;0.50;;
15818;SDS011;8010;53.986;12.106;2024-03-17T03:53:29;2.20;;;0.50;;
15818;SDS011;8010;53.986;12.106;2024-03-17T03:55:56;4.63;;;0.73;;
15818;SDS011;8010;53.986;12.106;2024-03-17T03:58:21;1.00;;;0.40;;
15818;SDS011;8010;53.986;12.106;2024-03-17T04:00:46;3.23;;;0.70;;
15818;SDS011;8010;53.986;12.106;2024-03-17T04:03:12;2.20;;;0.80;;
15818;SDS011;8010;53.986;12.106;2024-03-17T04:05:37;2.70;;;0.90;;
15818;SDS011;8010;53.986;12.106;2024-03-17T04:08:03;1.17;;;0.40;;
15818;SDS011;8010;53.986;12.106;2024-03-17T04:10:29;3.50;;;0.70;;
15818;SDS011;8010;53.986;12.106;2024-03-17T04:12:55;3.10;;;0.60;;
15818;SDS011;8010;53.986;12.106;2024-03-17T04:15:22;1.57;;;0.70;;
15818;SDS011;8010;53.986;12.106;2024-03-17T04:17:48;1.00;;;0.50;;
15818;SDS011;8010;53.986;12.106;2024-03-17T04:20:14;2.70;;;0.60;;
15818;SDS011;8010;53.986;12.106;2024-03-17T04:22:40;1.87;;;0.70;;
15818;SDS011;8010;53.986;12.106;2024-03-17T04:25:07;3.47;;;1.00;;
15818;SDS011;8010;53.986;12.106;2024-03-17T04:27:34;2.40;;;0.80;;
15818;SDS011;8010;53.986;12.106;2024-03-17T04:30:00;3.23;;;0.57;;
15818;SDS011;8010;53.986;12.106;2024-03-17T04:32:26;1.93;;;0.70;;
15818;SDS011;8010;53.986;12.106;2024-03-17T04:34:54;3.70;;;0.57;;
15818;SDS011;8010;53.986;12.106;2024-03-17T04:37:19;4.97;;;0.50;;
15818;SDS011;8010;53.986;12.106;2024-03-17T04:39:46;2.63;;;0.77;;
15818;SDS011;8010;53.986;12.106;2024-03-17T04:42:12;4.87;;;0.87;;
15818;SDS011;8010;53.986;12.106;2024-03-17T04:44:39;3.53;;;1.10;;
15818;SDS011;8010;53.986;12.106;2024-03-17T04:47:05;1.47;;;0.50;;
15818;SDS011;8010;53.986;12.106;2024-03-17T04:49:50;2.73;;;0.70;;
15818;SDS011;8010;53.986;12.106;2024-03-17T04:52:15;4.10;;;0.77;;
15818;SDS011;8010;53.986;12.106;2024-03-17T04:54:41;1.93;;;0.50;;
15818;SDS011;8010;53.986;12.106;2024-03-17T04:57:08;2.50;;;0.50;;
15818;SDS011;8010;53.986;12.106;2024-03-17T04:59:34;2.60;;;0.60;;
15818;SDS011;8010;53.986;12.106;2024-03-17T05:02:00;2.20;;;0.60;;
15818;SDS011;8010;53.986;12.106;2024-03-17T05:04:25;2.70;;;0.70;;
15818;SDS011;8010;53.986;12.106;2024-03-17T05:06:51;3.57;;;1.00;;
15818;SDS011;8010;53.986;12.106;2024-03-17T05:09:17;3.70;;;0.67;;
15818;SDS011;8010;53.986;12.106;2024-03-17T05:11:42;4.77;;;0.50;;
15818;SDS011;8010;53.986;12.106;2024-03-17T05:14:08;2.17;;;0.47;;
15818;SDS011;8010;53.986;12.106;2024-03-17T05:16:34;1.20;;;0.57;;
15818;SDS011;8010;53.986;12.106;2024-03-17T05:19:00;3.50;;;0.70;;
15818;SDS011;8010;53.986;12.106;2024-03-17T05:21:25;4.90;;;0.70;;
15818;SDS011;8010;53.986;12.106;2024-03-17T05:23:55;3.37;;;0.83;;
15818;SDS011;8010;53.986;12.106;2024-03-17T05:26:21;1.57;;;0.80;;
15818;SDS011;8010;53.986;12.106;2024-03-17T05:28:47;3.33;;;0.77;;
15818;SDS011;8010;53.986;12.106;2024-03-17T05:31:12;3.00;;;0.83;;
15818;SDS011;8010;53.986;12.106;2024-03-17T05:33:40;4.03;;;0.80;;
15818;SDS011;8010;53.986;12.106;2024-03-17T05:36:05;2.53;;;0.60;;
15818;SDS011;8010;53.986;12.106;2024-03-17T05:38:31;2.33;;;0.47;;
15818;SDS011;8010;53.986;12.106;2024-03-17T05:40:57;1.60;;;0.77;;
15818;SDS011;8010;53.986;12.106;2024-03-17T05:43:27;2.37;;;1.00;;
15818;SDS011;8010;53.986;12.106;2024-03-17T05:46:03;4.93;;;1.50;;
15818;SDS011;8010;53.986;12.106;2024-03-17T05:48:31;6.20;;;1.97;;
15818;SDS011;8010;53.986;12.106;2024-03-17T05:51:03;5.50;;;1.80;;
15818;SDS011;8010;53.986;12.106;2024-03-17T05:53:29;4.03;;;1.27;;
15818;SDS011;8010;53.986;12.106;2024-03-17T05:55:56;3.60;;;0.90;;
15818;SDS011;8010;53.986;12.106;2024-03-17T05:58:23;3.93;;;1.00;;
15818;SDS011;8010;53.986;12.106;2024-03-17T06:00:49;2.27;;;0.70;;
15818;SDS011;8010;53.986;12.106;2024-03-17T06:03:14;2.63;;;0.77;;
15818;SDS011;8010;53.986;12.106;2024-03-17T06:05:40;3.93;;;0.70;;
15818;SDS011;8010;53.986;12.106;2024-03-17T06:08:06;1.43;;;0.70;;
15818;SDS011;8010;53.986;12.106;2024-03-17T06:10:33;3.53;;;0.80;;
15818;SDS011;8010;53.986;12.106;2024-03-17T06:13:00;3.37;;;0.83;;
15818;SDS011;8010;53.986;12.106;2024-03-17T06:15:26;2.60;;;0.70;;
15818;SDS011;8010;53.986;12.106;2024-03-17T06:17:53;2.50;;;0.70;;
15818;SDS011;8010;53.986;12.106;2024-03-17T06:20:19;5.03;;;0.77;;
15818;SDS011;8010;53.986;12.106;2024-03-17T06:22:45;2.30;;;0.60;;
15818;SDS011;8010;53.986;12.106;2024-03-17T06:25:11;3.50;;;0.90;;
15818;SDS011;8010;53.986;12.106;2024-03-17T06:27:37;4.60;;;0.90;;
15818;SDS011;8010;53.986;12.106;2024-03-17T06:30:03;1.83;;;0.70;;
15818;SDS011;8010;53.986;12.106;2024-03-17T06:32:29;2.37;;;0.70;;
15818;SDS011;8010;53.986;12.106;2024-03-17T06:34:58;5.37;;;1.93;;
15818;SDS011;8010;53.986;12.106;2024-03-17T06:37:26;6.00;;;1.00;;
15818;SDS011;8010;53.986;12.106;2024-03-17T06:39:51;2.73;;;0.90;;
15818;SDS011;8010;53.986;12.106;2024-03-17T06:42:17;2.83;;;0.80;;
15818;SDS011;8010;53.986;12.106;2024-03-17T06:44:42;2.50;;;0.97;;
15818;SDS011;8010;53.986;12.106;2024-03-17T06:47:08;1.93;;;1.03;;
15818;SDS011;8010;53.986;12.106;2024-03-17T06:49:33;7.73;;;1.43;;
15818;SDS011;8010;53.986;12.106;2024-03-17T06:51:59;2.67;;;1.00;;
15818;SDS011;8010;53.986;12.106;2024-03-17T06:54:24;6.57;;;1.47;;
15818;SDS011;8010;53.986;12.106;2024-03-17T06:56:50;4.10;;;1.30;;
15818;SDS011;8010;53.986;12.106;2024-03-17T06:59:16;3.97;;;1.07;;
15818;SDS011;8010;53.986;12.106;2024-03-17T07:01:42;3.13;;;1.20;;
15818;SDS011;8010;53.986;12.106;2024-03-17T07:04:09;3.57;;;1.50;;
15818;SDS011;8010;53.986;12.106;2024-03-17T07:06:35;4.97;;;1.00;;
15818;SDS011;8010;53.986;12.106;2024-03-17T07:09:01;3.90;;;1.00;;
15818;SDS011;8010;53.986;12.106;2024-03-17T07:11:27;4.77;;;1.30;;
15818;SDS011;8010;53.986;12.106;2024-03-17T07:13:53;6.27;;;1.07;;
15818;SDS011;8010;53.986;12.106;2024-03-17T07:16:18;4.80;;;1.20;;
15818;SDS011;8010;53.986;12.106;2024-03-17T07:18:46;3.73;;;1.03;;
15818;SDS011;8010;53.986;12.106;2024-03-17T07:21:11;2.57;;;1.00;;
15818;SDS011;8010;53.986;12.106;2024-03-17T07:23:38;1.60;;;1.00;;
15818;SDS011;8010;53.986;12.106;2024-03-17T07:26:03;1.20;;;0.80;;
15818;SDS011;8010;53.986;12.106;2024-03-17T07:28:34;4.70;;;0.90;;
15818;SDS011;8010;53.986;12.106;2024-03-17T07:30:59;1.37;;;0.87;;
15818;SDS011;8010;53.986;12.106;2024-03-17T07:33:25;3.17;;;1.10;;
15818;SDS011;8010;53.986;12.106;2024-03-17T07:35:52;3.37;;;1.00;;
15818;SDS011;8010;53.986;12.106;2024-03-17T07:38:20;3.67;;;1.07;;
15818;SDS011;8010;53.986;12.106;2024-03-17T07:40:55;2.17;;;0.93;;
15818;SDS011;8010;53.986;12.106;2024-03-17T07:43:25;3.87;;;0.90;;
15818;SDS011;8010;53.986;12.106;2024-03-17T07:46:01;2.27;;;0.83;;
15818;SDS011;8010;53.986;12.106;2024-03-17T07:48:31;1.43;;;0.90;;
15818;SDS011;8010;53.986;12.106;2024-03-17T07:50:58;2.80;;;0.90;;
15818;SDS011;8010;53.986;12.106;2024-03-17T07:53:34;1.50;;;0.90;;
15818;SDS011;8010;53.986;12.106;2024-03-17T07:56:01;3.33;;;0.90;;
15818;SDS011;8010;53.986;12.106;2024-03-17T07:58:28;3.00;;;0.90;;
15818;SDS011;8010;53.986;12.106;2024-03-17T08:00:58;1.20;;;0.87;;
15818;SDS011;8010;53.986;12.106;2024-03-17T08:03:31;2.60;;;1.03;;
15818;SDS011;8010;53.986;12.106;2024-03-17T08:05:58;2.47;;;0.80;;
15818;SDS011;8010;53.986;12.106;2024-03-17T08:08:24;3.70;;;0.50;;
15818;SDS011;8010;53.986;12.106;2024-03-17T08:10:50;1.10;;;0.60;;
15818;SDS011;8010;53.986;12.106;2024-03-17T08:13:16;0.70;;;0.70;;
15818;SDS011;8010;53.986;12.106;2024-03-17T08:15:43;1.47;;;0.47;;
15818;SDS011;8010;53.986;12.106;2024-03-17T08:18:10;4.10;;;0.67;;
15818;SDS011;8010;53.986;12.106;2024-03-17T08:20:39;1.43;;;0.70;;
15818;SDS011;8010;53.986;12.106;2024-03-17T08:23:05;2.80;;;0.53;;
15818;SDS011;8010;53.986;12.106;2024-03-17T08:25:32;1.40;;;0.67;;
15818;SDS011;8010;53.986;12.106;2024-03-17T08:27:58;1.20;;;0.63;;
15818;SDS011;8010;53.986;12.106;2024-03-17T08:30:24;2.10;;;0.60;;
15818;SDS011;8010;53.986;12.106;2024-03-17T08:32:50;3.53;;;0.70;;
15818;SDS011;8010;53.986;12.106;2024-03-17T08:35:15;2.57;;;0.60;;
15818;SDS011;8010;53.986;12.106;2024-03-17T08:37:41;2.23;;;0.80;;
15818;SDS011;8010;53.986;12.106;2024-03-17T08:40:06;1.27;;;0.70;;
15818;SDS011;8010;53.986;12.106;2024-03-17T08:42:33;1.03;;;0.40;;
15818;SDS011;8010;53.986;12.106;2024-03-17T08:44:58;6.10;;;1.00;;
15818;SDS011;8010;53.986;12.106;2024-03-17T08:47:24;3.70;;;0.90;;
15818;SDS011;8010;53.986;12.106;2024-03-17T08:49:52;2.60;;;0.70;;
15818;SDS011;8010;53.986;12.106;2024-03-17T08:52:18;1.47;;;0.73;;
15818;SDS011;8010;53.986;12.106;2024-03-17T08:54:47;0.90;;;0.50;;
15818;SDS011;8010;53.986;12.106;2024-03-17T08:57:13;2.30;;;0.50;;
15818;SDS011;8010;53.986;12.106;2024-03-17T08:59:39;3.50;;;1.03;;
15818;SDS011;8010;53.986;12.106;2024-03-17T09:02:05;1.57;;;0.57;;
15818;SDS011;8010;53.986;12.106;2024-03-17T09:04:36;2.80;;;0.50;;
15818;SDS011;8010;53.986;12.106;2024-03-17T09:07:02;2.03;;;0.47;;
15818;SDS011;8010;53.986;12.106;2024-03-17T09:09:29;1.40;;;0.60;;
15818;SDS011;8010;53.986;12.106;2024-03-17T09:11:54;1.90;;;0.50;;
15818;SDS011;8010;53.986;12.106;2024-03-17T09:14:20;3.03;;;0.70;;
15818;SDS011;8010;53.986;12.106;2024-03-17T09:16:46;0.67;;;0.43;;
15818;SDS011;8010;53.986;12.106;2024-03-17T09:19:12;0.90;;;0.40;;
15818;SDS011;8010;53.986;12.106;2024-03-17T09:21:38;0.80;;;0.50;;
15818;SDS011;8010;53.986;12.106;2024-03-17T09:24:05;0.80;;;0.50;;
15818;SDS011;8010;53.986;12.106;2024-03-17T09:26:32;1.63;;;0.70;;
15818;SDS011;8010;53.986;12.106;2024-03-17T09:28:59;0.70;;;0.40;;
15818;SDS011;8010;53.986;12.106;2024-03-17T09:31:24;0.73;;;0.40;;
15818;SDS011;8010;53.986;12.106;2024-03-17T09:33:50;0.57;;;0.30;;
15818;SDS011;8010;53.986;12.106;2024-03-17T09:36:16;1.90;;;0.50;;
15818;SDS011;8010;53.986;12.106;2024-03-17T09:38:43;1.03;;;0.60;;
15818;SDS011;8010;53.986;12.106;2024-03-17T09:41:14;1.77;;;0.60;;
15818;SDS011;8010;53.986;12.106;2024-03-17T09:43:49;1.00;;;0.50;;
15818;SDS011;8010;53.986;12.106;2024-03-17T09:46:18;0.73;;;0.50;;
15818;SDS011;8010;53.986;12.106;2024-03-17T09:48:44;2.43;;;0.60;;
15818;SDS011;8010;53.986;12.106;2024-03-17T09:51:16;1.43;;;0.57;;
15818;SDS011;8010;53.986;12.106;2024-03-17T09:53:45;4.53;;;0.70;;
15818;SDS011;8010;53.986;12.106;2024-03-17T09:56:12;0.70;;;0.50;;
15818;SDS011;8010;53.986;12.106;2024-03-17T09:58:40;3.07;;;0.40;;
15818;SDS011;8010;53.986;12.106;2024-03-17T10:01:06;1.63;;;0.50;;
15818;SDS011;8010;53.986;12.106;2024-03-17T10:06:16;1.23;;;0.30;;
15818;SDS011;8010;53.986;12.106;2024-03-17T10:08:44;0.50;;;0.40;;
15818;SDS011;8010;53.986;12.106;2024-03-17T10:11:11;2.60;;;0.50;;
15818;SDS011;8010;53.986;12.106;2024-03-17T10:13:41;0.60;;;0.40;;
15818;SDS011;8010;53.986;12.106;2024-03-17T10:16:28;0.97;;;0.37;;
15818;SDS011;8010;53.986;12.106;2024-03-17T10:19:08;0.63;;;0.30;;
15818;SDS011;8010;53.986;12.106;2024-03-17T10:21:41;0.60;;;0.40;;
15818;SDS011;8010;53.986;12.106;2024-03-17T10:24:12;1.73;;;0.40;;
15818;SDS011;8010;53.986;12.106;2024-03-17T10:26:51;1.23;;;0.40;;
15818;SDS011;8010;53.986;12.106;2024-03-17T10:31:48;0.33;;;0.23;;
15818;SDS011;8010;53.986;12.106;2024-03-17T10:34:16;1.97;;;0.40;;
15818;SDS011;8010;53.986;12.106;2024-03-17T10:36:43;1.17;;;0.47;;
15818;SDS011;8010;53.986;12.106;2024-03-17T10:39:22;1.53;;;0.43;;
15818;SDS011;8010;53.986;12.106;2024-03-17T10:41:54;0.50;;;0.40;;
15818;SDS011;8010;53.986;12.106;2024-03-17T10:44:26;0.53;;;0.50;;
15818;SDS011;8010;53.986;12.106;2024-03-17T10:46:54;0.27;;;0.20;;
15818;SDS011;8010;53.986;12.106;2024-03-17T10:49:23;0.80;;;0.43;;
15818;SDS011;8010;53.986;12.106;2024-03-17T10:51:55;2.73;;;0.90;;
15818;SDS011;8010;53.986;12.106;2024-03-17T10:54:25;0.60;;;0.20;;
15818;SDS011;8010;53.986;12.106;2024-03-17T10:56:53;1.00;;;0.40;;
15818;SDS011;8010;53.986;12.106;2024-03-17T10:59:22;1.70;;;0.40;;
15818;SDS011;8010;53.986;12.106;2024-03-17T11:01:55;0.57;;;0.30;;
15818;SDS011;8010;53.986;12.106;2024-03-17T11:04:21;1.20;;;0.30;;
15818;SDS011;8010;53.986;12.106;2024-03-17T11:06:47;1.10;;;0.40;;
15818;SDS011;8010;53.986;12.106;2024-03-17T11:09:14;2.23;;;0.83;;
15818;SDS011;8010;53.986;12.106;2024-03-17T11:11:41;0.83;;;0.20;;
15818;SDS011;8010;53.986;12.106;2024-03-17T11:14:17;1.00;;;0.33;;
15818;SDS011;8010;53.986;12.106;2024-03-17T11:16:44;0.43;;;0.30;;
15818;SDS011;8010;53.986;12.106;2024-03-17T11:19:14;1.30;;;0.30;;
15818;SDS011;8010;53.986;12.106;2024-03-17T11:21:41;1.10;;;0.50;;
15818;SDS011;8010;53.986;12.106;2024-03-17T11:24:07;0.30;;;0.20;;
15818;SDS011;8010;53.986;12.106;2024-03-17T11:26:44;0.73;;;0.30;;
15818;SDS011;8010;53.986;12.106;2024-03-17T11:29:25;0.90;;;0.40;;
15818;SDS011;8010;53.986;12.106;2024-03-17T11:31:55;0.67;;;0.40;;
15818;SDS011;8010;53.986;12.106;2024-03-17T11:34:30;0.40;;;0.30;;
15818;SDS011;8010;53.986;12.106;2024-03-17T11:36:59;0.87;;;0.30;;
15818;SDS011;8010;53.986;12.106;2024-03-17T11:42:15;0.27;;;0.20;;
15818;SDS011;8010;53.986;12.106;2024-03-17T11:47:36;0.53;;;0.33;;
15818;SDS011;8010;53.986;12.106;2024-03-17T11:50:06;1.27;;;0.40;;
15818;SDS011;8010;53.986;12.106;2024-03-17T11:52:36;1.03;;;0.33;;
15818;SDS011;8010;53.986;12.106;2024-03-17T11:55:02;0.80;;;0.50;;
15818;SDS011;8010;53.986;12.106;2024-03-17T11:57:28;1.83;;;0.43;;
15818;SDS011;8010;53.986;12.106;2024-03-17T11:59:55;0.73;;;0.50;;
15818;SDS011;8010;53.986;12.106;2024-03-17T12:02:22;0.87;;;0.50;;
15818;SDS011;8010;53.986;12.106;2024-03-17T12:04:51;1.43;;;0.60;;
15818;SDS011;8010;53.986;12.106;2024-03-17T12:07:19;0.90;;;0.30;;
15818;SDS011;8010;53.986;12.106;2024-03-17T12:09:46;0.47;;;0.37;;
15818;SDS011;8010;53.986;12.106;2024-03-17T12:12:19;0.80;;;0.60;;
15818;SDS011;8010;53.986;12.106;2024-03-17T12:14:46;0.53;;;0.37;;
15818;SDS011;8010;53.986;12.106;2024-03-17T12:17:13;0.50;;;0.40;;
15818;SDS011;8010;53.986;12.106;2024-03-17T12:19:40;1.50;;;0.80;;
15818;SDS011;8010;53.986;12.106;2024-03-17T12:22:09;1.57;;;0.57;;
15818;SDS011;8010;53.986;12.106;2024-03-17T12:24:47;0.50;;;0.47;;
15818;SDS011;8010;53.986;12.106;2024-03-17T12:27:17;2.30;;;0.43;;
15818;SDS011;8010;53.986;12.106;2024-03-17T12:29:46;0.83;;;0.50;;
15818;SDS011;8010;53.986;12.106;2024-03-17T12:32:13;1.03;;;0.40;;
15818;SDS011;8010;53.986;12.106;2024-03-17T12:34:42;1.60;;;0.47;;
15818;SDS011;8010;53.986;12.106;2024-03-17T12:37:16;0.80;;;0.50;;
15818;SDS011;8010;53.986;12.106;2024-03-17T12:39:41;1.27;;;0.43;;
15818;SDS011;8010;53.986;12.106;2024-03-17T12:42:08;1.50;;;0.40;;
15818;SDS011;8010;53.986;12.106;2024-03-17T12:44:49;0.40;;;0.40;;
15818;SDS011;8010;53.986;12.106;2024-03-17T12:47:19;0.77;;;0.50;;
15818;SDS011;8010;53.986;12.106;2024-03-17T12:49:55;2.00;;;0.50;;
15818;SDS011;8010;53.986;12.106;2024-03-17T12:52:28;0.97;;;0.53;;
15818;SDS011;8010;53.986;12.106;2024-03-17T12:54:58;0.60;;;0.50;;
15818;SDS011;8010;53.986;12.106;2024-03-17T12:57:43;0.87;;;0.60;;
15818;SDS011;8010;53.986;12.106;2024-03-17T13:00:28;0.40;;;0.40;;
15818;SDS011;8010;53.986;12.106;2024-03-17T13:02:56;0.50;;;0.47;;
15818;SDS011;8010;53.986;12.106;2024-03-17T13:05:22;0.43;;;0.30;;
15818;SDS011;8010;53.986;12.106;2024-03-17T13:07:48;0.80;;;0.60;;
15818;SDS011;8010;53.986;12.106;2024-03-17T13:10:15;0.97;;;0.50;;
15818;SDS011;8010;53.986;12.106;2024-03-17T13:12:42;1.43;;;0.63;;
15818;SDS011;8010;53.986;12.106;2024-03-17T13:15:13;1.00;;;0.60;;
15818;SDS011;8010;53.986;12.106;2024-03-17T13:17:40;0.93;;;0.60;;
15818;SDS011;8010;53.986;12.106;2024-03-17T13:20:07;1.77;;;0.70;;
15818;SDS011;8010;53.986;12.106;2024-03-17T13:22:38;0.50;;;0.40;;
15818;SDS011;8010;53.986;12.106;2024-03-17T13:25:05;1.23;;;0.70;;
15818;SDS011;8010;53.986;12.106;2024-03-17T13:27:33;0.50;;;0.50;;
15818;SDS011;8010;53.986;12.106;2024-03-17T13:29:59;0.73;;;0.50;;
15818;SDS011;8010;53.986;12.106;2024-03-17T13:32:25;2.53;;;0.60;;
15818;SDS011;8010;53.986;12.106;2024-03-17T13:34:51;0.70;;;0.57;;
15818;SDS011;8010;53.986;12.106;2024-03-17T13:37:17;0.60;;;0.60;;
15818;SDS011;8010;53.986;12.106;2024-03-17T13:39:42;0.90;;;0.50;;
15818;SDS011;8010;53.986;12.106;2024-03-17T13:42:08;0.60;;;0.50;;
15818;SDS011;8010;53.986;12.106;2024-03-17T13:44:34;1.57;;;0.60;;
15818;SDS011;8010;53.986;12.106;2024-03-17T13:47:00;0.90;;;0.40;;
15818;SDS011;8010;53.986;12.106;2024-03-17T13:49:28;0.50;;;0.40;;
15818;SDS011;8010;53.986;12.106;2024-03-17T13:51:54;0.73;;;0.57;;
15818;SDS011;8010;53.986;12.106;2024-03-17T13:54:20;1.00;;;0.50;;
15818;SDS011;8010;53.986;12.106;2024-03-17T13:56:48;0.97;;;0.67;;
15818;SDS011;8010;53.986;12.106;2024-03-17T13:59:14;3.37;;;0.60;;
15818;SDS011;8010;53.986;12.106;2024-03-17T14:01:41;2.30;;;0.97;;
15818;SDS011;8010;53.986;12.106;2024-03-17T14:04:12;2.53;;;0.57;;
15818;SDS011;8010;53.986;12.106;2024-03-17T14:06:40;0.60;;;0.60;;
15818;SDS011;8010;53.986;12.106;2024-03-17T14:09:06;0.63;;;0.47;;
15818;SDS011;8010;53.986;12.106;2024-03-17T14:11:34;3.67;;;0.60;;
15818;SDS011;8010;53.986;12.106;2024-03-17T14:14:00;1.03;;;0.60;;
15818;SDS011;8010;53.986;12.106;2024-03-17T14:16:25;1.43;;;0.70;;
15818;SDS011;8010;53.986;12.106;2024-03-17T14:18:51;0.90;;;0.60;;
15818;SDS011;8010;53.986;12.106;2024-03-17T14:21:16;1.43;;;0.60;;
15818;SDS011;8010;53.986;12.106;2024-03-17T14:23:42;0.97;;;0.67;;
15818;SDS011;8010;53.986;12.106;2024-03-17T14:26:10;0.50;;;0.50;;
15818;SDS011;8010;53.986;12.106;2024-03-17T14:28:36;0.93;;;0.67;;
15818;SDS011;8010;53.986;12.106;2024-03-17T14:31:01;0.93;;;0.63;;
15818;SDS011;8010;53.986;12.106;2024-03-17T14:33:27;1.10;;;0.70;;
15818;SDS011;8010;53.986;12.106;2024-03-17T14:35:59;0.53;;;0.53;;
15818;SDS011;8010;53.986;12.106;2024-03-17T14:38:25;2.43;;;0.63;;
15818;SDS011;8010;53.986;12.106;2024-03-17T14:40:51;1.13;;;0.70;;
15818;SDS011;8010;53.986;12.106;2024-03-17T14:43:18;0.97;;;0.70;;
15818;SDS011;8010;53.986;12.106;2024-03-17T14:45:44;0.60;;;0.50;;
15818;SDS011;8010;53.986;12.106;2024-03-17T14:48:10;0.90;;;0.50;;
15818;SDS011;8010;53.986;12.106;2024-03-17T14:50:36;1.00;;;0.60;;
15818;SDS011;8010;53.986;12.106;2024-03-17T14:53:02;1.53;;;0.73;;
15818;SDS011;8010;53.986;12.106;2024-03-17T14:55:27;1.13;;;0.50;;
15818;SDS011;8010;53.986;12.106;2024-03-17T14:57:53;1.30;;;0.70;;